sensor_id;sensor_type;location;lat;lon;timestamp;P1;durP1;ratioP1;P2;durP2;ratioP2
46447;SDS011;32145;50.390;30.778;2023-05-27T00:00:13;8.98;;;7.75;;
46447;SDS011;32145;50.390;30.778;2023-05-27T00:03:08;9.68;;;6.97;;
46447;SDS011;32145;50.390;30.778;2023-05-27T00:06:02;8.32;;;7.13;;
46447;SDS011;32145;50.390;30.778;2023-05-27T00:08:56;9.40;;;7.20;;
46447;SDS011;32145;50.390;30.778;2023-05-27T00:11:54;10.10;;;7.18;;
46447;SDS011;32145;50.390;30.778;2023-05-27T00:14:50;8.52;;;6.68;;
46447;SDS011;32145;50.390;30.778;2023-05-27T00:17:47;10.43;;;7.50;;
46447;SDS011;32145;50.390;30.778;2023-05-27T00:20:41;11.98;;;7.03;;
46447;SDS011;32145;50.390;30.778;2023-05-27T00:23:36;9.23;;;6.80;;
46447;SDS011;32145;50.390;30.778;2023-05-27T00:26:32;7.60;;;6.70;;
46447;SDS011;32145;50.390;30.778;2023-05-27T00:29:29;10.10;;;7.18;;
46447;SDS011;32145;50.390;30.778;2023-05-27T00:32:24;9.25;;;6.63;;
46447;SDS011;32145;50.390;30.778;2023-05-27T00:35:18;7.63;;;6.72;;
46447;SDS011;32145;50.390;30.778;2023-05-27T00:38:12;9.07;;;6.90;;
46447;SDS011;32145;50.390;30.778;2023-05-27T00:41:07;12.48;;;7.25;;
46447;SDS011;32145;50.390;30.778;2023-05-27T00:44:03;8.25;;;6.72;;
46447;SDS011;32145;50.390;30.778;2023-05-27T00:46:59;9.65;;;6.68;;
46447;SDS011;32145;50.390;30.778;2023-05-27T00:49:54;9.02;;;6.85;;
46447;SDS011;32145;50.390;30.778;2023-05-27T00:52:48;8.80;;;6.35;;
46447;SDS011;32145;50.390;30.778;2023-05-27T00:55:42;7.82;;;6.63;;
46447;SDS011;32145;50.390;30.778;2023-05-27T00:58:36;8.43;;;6.90;;
46447;SDS011;32145;50.390;30.778;2023-05-27T01:01:33;10.23;;;6.38;;
46447;SDS011;32145;50.390;30.778;2023-05-27T01:04:30;9.80;;;6.57;;
46447;SDS011;32145;50.390;30.778;2023-05-27T01:07:29;7.82;;;6.45;;
46447;SDS011;32145;50.390;30.778;2023-05-27T01:10:33;9.27;;;6.80;;
46447;SDS011;32145;50.390;30.778;2023-05-27T01:13:33;7.03;;;6.32;;
46447;SDS011;32145;50.390;30.778;2023-05-27T01:16:32;9.95;;;6.80;;
46447;SDS011;32145;50.390;30.778;2023-05-27T01:19:34;8.98;;;6.88;;
46447;SDS011;32145;50.390;30.778;2023-05-27T01:22:33;8.48;;;6.80;;
46447;SDS011;32145;50.390;30.778;2023-05-27T01:25:30;8.50;;;6.95;;
46447;SDS011;32145;50.390;30.778;2023-05-27T01:28:26;9.77;;;6.68;;
46447;SDS011;32145;50.390;30.778;2023-05-27T01:31:23;9.98;;;7.00;;
46447;SDS011;32145;50.390;30.778;2023-05-27T01:34:28;9.15;;;6.82;;
46447;SDS011;32145;50.390;30.778;2023-05-27T01:37:30;8.98;;;7.00;;
46447;SDS011;32145;50.390;30.778;2023-05-27T01:40:31;8.65;;;6.85;;
46447;SDS011;32145;50.390;30.778;2023-05-27T01:43:27;8.57;;;6.75;;
46447;SDS011;32145;50.390;30.778;2023-05-27T01:46:22;11.00;;;7.30;;
46447;SDS011;32145;50.390;30.778;2023-05-27T01:49:17;10.82;;;7.18;;
46447;SDS011;32145;50.390;30.778;2023-05-27T01:52:11;8.73;;;6.68;;
46447;SDS011;32145;50.390;30.778;2023-05-27T01:55:05;8.98;;;6.78;;
46447;SDS011;32145;50.390;30.778;2023-05-27T01:58:01;8.25;;;7.20;;
46447;SDS011;32145;50.390;30.778;2023-05-27T02:00:55;10.07;;;7.15;;
46447;SDS011;32145;50.390;30.778;2023-05-27T02:03:50;10.98;;;7.07;;
46447;SDS011;32145;50.390;30.778;2023-05-27T02:06:44;8.32;;;7.18;;
46447;SDS011;32145;50.390;30.778;2023-05-27T02:09:38;9.65;;;7.53;;
46447;SDS011;32145;50.390;30.778;2023-05-27T02:12:33;10.13;;;7.65;;
46447;SDS011;32145;50.390;30.778;2023-05-27T02:15:29;8.40;;;7.25;;
46447;SDS011;32145;50.390;30.778;2023-05-27T02:18:25;10.00;;;7.38;;
46447;SDS011;32145;50.390;30.778;2023-05-27T02:21:21;10.18;;;6.78;;
46447;SDS011;32145;50.390;30.778;2023-05-27T02:24:18;9.80;;;7.13;;
46447;SDS011;32145;50.390;30.778;2023-05-27T02:27:14;8.57;;;7.05;;
46447;SDS011;32145;50.390;30.778;2023-05-27T02:30:11;11.23;;;7.35;;
46447;SDS011;32145;50.390;30.778;2023-05-27T02:33:10;8.23;;;6.88;;
46447;SDS011;32145;50.390;30.778;2023-05-27T02:36:06;9.25;;;7.05;;
46447;SDS011;32145;50.390;30.778;2023-05-27T02:39:03;12.73;;;7.13;;
46447;SDS011;32145;50.390;30.778;2023-05-27T02:41:59;12.57;;;6.82;;
46447;SDS011;32145;50.390;30.778;2023-05-27T02:44:54;8.38;;;6.88;;
46447;SDS011;32145;50.390;30.778;2023-05-27T02:47:48;8.48;;;7.05;;
46447;SDS011;32145;50.390;30.778;2023-05-27T02:50:44;7.80;;;7.00;;
46447;SDS011;32145;50.390;30.778;2023-05-27T02:53:38;7.70;;;6.40;;
46447;SDS011;32145;50.390;30.778;2023-05-27T02:56:34;8.88;;;6.10;;
46447;SDS011;32145;50.390;30.778;2023-05-27T02:59:31;7.60;;;6.43;;
46447;SDS011;32145;50.390;30.778;2023-05-27T03:02:27;10.52;;;6.38;;
46447;SDS011;32145;50.390;30.778;2023-05-27T03:05:23;7.57;;;6.60;;
46447;SDS011;32145;50.390;30.778;2023-05-27T03:08:21;7.95;;;6.47;;
46447;SDS011;32145;50.390;30.778;2023-05-27T03:11:17;8.73;;;6.55;;
46447;SDS011;32145;50.390;30.778;2023-05-27T03:14:13;8.70;;;6.28;;
46447;SDS011;32145;50.390;30.778;2023-05-27T03:17:10;9.32;;;6.40;;
46447;SDS011;32145;50.390;30.778;2023-05-27T03:20:04;9.30;;;6.00;;
46447;SDS011;32145;50.390;30.778;2023-05-27T03:23:00;9.13;;;6.40;;
46447;SDS011;32145;50.390;30.778;2023-05-27T03:25:56;8.10;;;6.40;;
46447;SDS011;32145;50.390;30.778;2023-05-27T03:28:50;8.38;;;6.22;;
46447;SDS011;32145;50.390;30.778;2023-05-27T03:31:44;7.63;;;6.07;;
46447;SDS011;32145;50.390;30.778;2023-05-27T03:34:39;7.32;;;6.13;;
46447;SDS011;32145;50.390;30.778;2023-05-27T03:37:33;11.00;;;6.55;;
46447;SDS011;32145;50.390;30.778;2023-05-27T03:40:28;10.13;;;6.40;;
46447;SDS011;32145;50.390;30.778;2023-05-27T03:43:23;7.88;;;5.68;;
46447;SDS011;32145;50.390;30.778;2023-05-27T03:46:18;7.82;;;6.05;;
46447;SDS011;32145;50.390;30.778;2023-05-27T03:49:12;7.60;;;5.57;;
46447;SDS011;32145;50.390;30.778;2023-05-27T03:52:06;9.45;;;5.72;;
46447;SDS011;32145;50.390;30.778;2023-05-27T03:55:01;9.25;;;5.88;;
46447;SDS011;32145;50.390;30.778;2023-05-27T03:57:55;9.00;;;5.55;;
46447;SDS011;32145;50.390;30.778;2023-05-27T04:00:50;9.43;;;6.10;;
46447;SDS011;32145;50.390;30.778;2023-05-27T04:03:45;7.05;;;5.65;;
46447;SDS011;32145;50.390;30.778;2023-05-27T04:06:41;7.10;;;5.93;;
46447;SDS011;32145;50.390;30.778;2023-05-27T04:09:37;8.77;;;6.30;;
46447;SDS011;32145;50.390;30.778;2023-05-27T04:12:33;8.40;;;6.60;;
46447;SDS011;32145;50.390;30.778;2023-05-27T04:15:30;11.07;;;6.60;;
46447;SDS011;32145;50.390;30.778;2023-05-27T04:18:27;8.43;;;6.50;;
46447;SDS011;32145;50.390;30.778;2023-05-27T04:21:24;9.35;;;6.57;;
46447;SDS011;32145;50.390;30.778;2023-05-27T04:24:20;10.23;;;6.78;;
46447;SDS011;32145;50.390;30.778;2023-05-27T04:27:16;8.45;;;6.20;;
46447;SDS011;32145;50.390;30.778;2023-05-27T04:30:13;9.40;;;6.47;;
46447;SDS011;32145;50.390;30.778;2023-05-27T04:33:09;8.02;;;6.25;;
46447;SDS011;32145;50.390;30.778;2023-05-27T04:36:07;9.23;;;6.63;;
46447;SDS011;32145;50.390;30.778;2023-05-27T04:39:03;9.77;;;6.38;;
46447;SDS011;32145;50.390;30.778;2023-05-27T04:41:59;8.00;;;5.93;;
46447;SDS011;32145;50.390;30.778;2023-05-27T04:44:56;10.73;;;5.82;;
46447;SDS011;32145;50.390;30.778;2023-05-27T04:47:52;12.05;;;6.40;;
46447;SDS011;32145;50.390;30.778;2023-05-27T04:50:48;10.07;;;6.68;;
46447;SDS011;32145;50.390;30.778;2023-05-27T04:53:46;9.20;;;6.25;;
46447;SDS011;32145;50.390;30.778;2023-05-27T04:56:42;8.68;;;6.15;;
46447;SDS011;32145;50.390;30.778;2023-05-27T04:59:38;8.18;;;5.82;;
46447;SDS011;32145;50.390;30.778;2023-05-27T05:02:35;8.98;;;6.13;;
46447;SDS011;32145;50.390;30.778;2023-05-27T05:05:32;8.95;;;6.25;;
46447;SDS011;32145;50.390;30.778;2023-05-27T05:08:26;7.47;;;6.00;;
46447;SDS011;32145;50.390;30.778;2023-05-27T05:11:22;9.32;;;6.18;;
46447;SDS011;32145;50.390;30.778;2023-05-27T05:14:16;11.85;;;6.43;;
46447;SDS011;32145;50.390;30.778;2023-05-27T05:17:10;8.73;;;6.15;;
46447;SDS011;32145;50.390;30.778;2023-05-27T05:19:55;7.78;;;5.93;;
46447;SDS011;32145;50.390;30.778;2023-05-27T05:22:39;8.60;;;6.13;;
46447;SDS011;32145;50.390;30.778;2023-05-27T05:25:35;10.75;;;7.18;;
46447;SDS011;32145;50.390;30.778;2023-05-27T05:28:33;9.48;;;6.40;;
46447;SDS011;32145;50.390;30.778;2023-05-27T05:31:17;11.00;;;6.22;;
46447;SDS011;32145;50.390;30.778;2023-05-27T05:34:01;8.75;;;6.00;;
46447;SDS011;32145;50.390;30.778;2023-05-27T05:36:57;8.20;;;5.90;;
46447;SDS011;32145;50.390;30.778;2023-05-27T05:39:41;8.32;;;6.10;;
46447;SDS011;32145;50.390;30.778;2023-05-27T05:42:37;8.63;;;6.35;;
46447;SDS011;32145;50.390;30.778;2023-05-27T05:45:35;8.52;;;6.70;;
46447;SDS011;32145;50.390;30.778;2023-05-27T05:48:19;7.95;;;6.20;;
46447;SDS011;32145;50.390;30.778;2023-05-27T05:51:13;8.27;;;6.00;;
46447;SDS011;32145;50.390;30.778;2023-05-27T05:53:57;7.47;;;5.63;;
46447;SDS011;32145;50.390;30.778;2023-05-27T05:56:42;9.63;;;6.03;;
46447;SDS011;32145;50.390;30.778;2023-05-27T05:59:38;10.60;;;6.20;;
46447;SDS011;32145;50.390;30.778;2023-05-27T06:02:36;9.80;;;6.18;;
46447;SDS011;32145;50.390;30.778;2023-05-27T06:05:32;11.85;;;6.07;;
46447;SDS011;32145;50.390;30.778;2023-05-27T06:08:26;12.20;;;6.03;;
46447;SDS011;32145;50.390;30.778;2023-05-27T06:11:21;7.35;;;6.38;;
46447;SDS011;32145;50.390;30.778;2023-05-27T06:14:15;7.55;;;5.97;;
46447;SDS011;32145;50.390;30.778;2023-05-27T06:17:10;7.80;;;6.22;;
46447;SDS011;32145;50.390;30.778;2023-05-27T06:20:06;6.97;;;5.88;;
46447;SDS011;32145;50.390;30.778;2023-05-27T06:23:01;8.23;;;6.40;;
46447;SDS011;32145;50.390;30.778;2023-05-27T06:25:55;7.95;;;6.15;;
46447;SDS011;32145;50.390;30.778;2023-05-27T06:28:49;8.50;;;6.18;;
46447;SDS011;32145;50.390;30.778;2023-05-27T06:31:44;8.65;;;6.10;;
46447;SDS011;32145;50.390;30.778;2023-05-27T06:34:38;10.13;;;6.88;;
46447;SDS011;32145;50.390;30.778;2023-05-27T06:37:34;8.20;;;6.65;;
46447;SDS011;32145;50.390;30.778;2023-05-27T06:40:28;10.27;;;7.25;;
46447;SDS011;32145;50.390;30.778;2023-05-27T06:43:22;9.40;;;7.18;;
46447;SDS011;32145;50.390;30.778;2023-05-27T06:46:16;8.98;;;8.02;;
46447;SDS011;32145;50.390;30.778;2023-05-27T06:49:11;9.65;;;7.22;;
46447;SDS011;32145;50.390;30.778;2023-05-27T06:52:07;10.13;;;7.50;;
46447;SDS011;32145;50.390;30.778;2023-05-27T06:55:05;9.43;;;7.07;;
46447;SDS011;32145;50.390;30.778;2023-05-27T06:58:02;10.60;;;7.38;;
46447;SDS011;32145;50.390;30.778;2023-05-27T07:00:53;8.65;;;6.93;;
46447;SDS011;32145;50.390;30.778;2023-05-27T07:03:47;9.63;;;7.45;;
46447;SDS011;32145;50.390;30.778;2023-05-27T07:06:42;9.55;;;7.55;;
46447;SDS011;32145;50.390;30.778;2023-05-27T07:09:38;8.13;;;7.03;;
46447;SDS011;32145;50.390;30.778;2023-05-27T07:12:36;8.52;;;6.72;;
46447;SDS011;32145;50.390;30.778;2023-05-27T07:15:32;8.10;;;7.15;;
46447;SDS011;32145;50.390;30.778;2023-05-27T07:18:29;8.98;;;7.13;;
46447;SDS011;32145;50.390;30.778;2023-05-27T07:21:25;10.40;;;7.50;;
46447;SDS011;32145;50.390;30.778;2023-05-27T07:24:21;8.68;;;7.13;;
46447;SDS011;32145;50.390;30.778;2023-05-27T07:27:18;9.95;;;7.22;;
46447;SDS011;32145;50.390;30.778;2023-05-27T07:30:15;9.75;;;7.43;;
46447;SDS011;32145;50.390;30.778;2023-05-27T07:33:12;11.18;;;7.53;;
46447;SDS011;32145;50.390;30.778;2023-05-27T07:36:09;10.98;;;7.65;;
46447;SDS011;32145;50.390;30.778;2023-05-27T07:39:05;9.65;;;7.32;;
46447;SDS011;32145;50.390;30.778;2023-05-27T07:42:02;8.80;;;7.38;;
46447;SDS011;32145;50.390;30.778;2023-05-27T07:44:59;10.45;;;7.82;;
46447;SDS011;32145;50.390;30.778;2023-05-27T07:47:56;12.00;;;7.65;;
46447;SDS011;32145;50.390;30.778;2023-05-27T07:50:53;9.20;;;7.70;;
46447;SDS011;32145;50.390;30.778;2023-05-27T07:53:49;11.73;;;8.07;;
46447;SDS011;32145;50.390;30.778;2023-05-27T07:56:45;8.70;;;7.65;;
46447;SDS011;32145;50.390;30.778;2023-05-27T07:59:42;9.45;;;7.97;;
46447;SDS011;32145;50.390;30.778;2023-05-27T08:02:38;10.70;;;7.57;;
46447;SDS011;32145;50.390;30.778;2023-05-27T08:05:36;10.10;;;7.82;;
46447;SDS011;32145;50.390;30.778;2023-05-27T08:08:32;8.65;;;6.90;;
46447;SDS011;32145;50.390;30.778;2023-05-27T08:11:28;9.23;;;6.97;;
46447;SDS011;32145;50.390;30.778;2023-05-27T08:14:24;10.60;;;7.38;;
46447;SDS011;32145;50.390;30.778;2023-05-27T08:17:19;11.07;;;6.40;;
46447;SDS011;32145;50.390;30.778;2023-05-27T08:20:13;9.02;;;6.32;;
46447;SDS011;32145;50.390;30.778;2023-05-27T08:23:09;11.10;;;6.57;;
46447;SDS011;32145;50.390;30.778;2023-05-27T08:26:03;9.60;;;6.47;;
46447;SDS011;32145;50.390;30.778;2023-05-27T08:28:57;7.45;;;6.53;;
46447;SDS011;32145;50.390;30.778;2023-05-27T08:31:52;7.95;;;6.45;;
46447;SDS011;32145;50.390;30.778;2023-05-27T08:34:46;9.73;;;6.80;;
46447;SDS011;32145;50.390;30.778;2023-05-27T08:37:40;7.82;;;6.85;;
46447;SDS011;32145;50.390;30.778;2023-05-27T08:40:36;8.88;;;5.72;;
46447;SDS011;32145;50.390;30.778;2023-05-27T08:43:31;8.90;;;6.00;;
46447;SDS011;32145;50.390;30.778;2023-05-27T08:46:26;7.97;;;5.93;;
46447;SDS011;32145;50.390;30.778;2023-05-27T08:49:20;7.68;;;6.18;;
46447;SDS011;32145;50.390;30.778;2023-05-27T08:52:16;8.18;;;6.40;;
46447;SDS011;32145;50.390;30.778;2023-05-27T08:55:14;8.07;;;5.00;;
46447;SDS011;32145;50.390;30.778;2023-05-27T08:58:12;5.97;;;4.90;;
46447;SDS011;32145;50.390;30.778;2023-05-27T09:01:09;7.95;;;5.07;;
46447;SDS011;32145;50.390;30.778;2023-05-27T09:04:06;8.35;;;5.28;;
46447;SDS011;32145;50.390;30.778;2023-05-27T09:07:02;9.27;;;5.05;;
46447;SDS011;32145;50.390;30.778;2023-05-27T09:09:58;7.90;;;5.03;;
46447;SDS011;32145;50.390;30.778;2023-05-27T09:12:55;6.53;;;4.97;;
46447;SDS011;32145;50.390;30.778;2023-05-27T09:15:51;7.05;;;4.95;;
46447;SDS011;32145;50.390;30.778;2023-05-27T09:18:51;5.18;;;4.45;;
46447;SDS011;32145;50.390;30.778;2023-05-27T09:21:46;5.80;;;4.55;;
46447;SDS011;32145;50.390;30.778;2023-05-27T09:24:40;6.88;;;4.60;;
46447;SDS011;32145;50.390;30.778;2023-05-27T09:27:35;5.20;;;4.30;;
46447;SDS011;32145;50.390;30.778;2023-05-27T09:30:19;5.50;;;4.22;;
46447;SDS011;32145;50.390;30.778;2023-05-27T09:33:05;5.68;;;4.20;;
46447;SDS011;32145;50.390;30.778;2023-05-27T09:36:00;6.45;;;4.47;;
46447;SDS011;32145;50.390;30.778;2023-05-27T09:38:55;6.28;;;4.78;;
46447;SDS011;32145;50.390;30.778;2023-05-27T09:41:42;5.57;;;4.63;;
46447;SDS011;32145;50.390;30.778;2023-05-27T09:44:27;7.82;;;4.80;;
46447;SDS011;32145;50.390;30.778;2023-05-27T09:47:12;7.85;;;5.80;;
46447;SDS011;32145;50.390;30.778;2023-05-27T09:50:10;7.40;;;5.65;;
46447;SDS011;32145;50.390;30.778;2023-05-27T09:52:55;7.45;;;5.70;;
46447;SDS011;32145;50.390;30.778;2023-05-27T09:55:42;8.50;;;5.85;;
46447;SDS011;32145;50.390;30.778;2023-05-27T09:58:32;6.38;;;5.47;;
46447;SDS011;32145;50.390;30.778;2023-05-27T10:01:27;7.45;;;6.13;;
46447;SDS011;32145;50.390;30.778;2023-05-27T10:04:13;7.78;;;5.90;;
46447;SDS011;32145;50.390;30.778;2023-05-27T10:07:11;8.38;;;6.07;;
46447;SDS011;32145;50.390;30.778;2023-05-27T10:09:56;7.57;;;5.88;;
46447;SDS011;32145;50.390;30.778;2023-05-27T10:12:40;10.55;;;5.95;;
46447;SDS011;32145;50.390;30.778;2023-05-27T10:15:38;9.15;;;6.20;;
46447;SDS011;32145;50.390;30.778;2023-05-27T10:18:22;7.55;;;5.97;;
46447;SDS011;32145;50.390;30.778;2023-05-27T10:21:18;8.60;;;5.95;;
46447;SDS011;32145;50.390;30.778;2023-05-27T10:24:04;9.27;;;5.80;;
46447;SDS011;32145;50.390;30.778;2023-05-27T10:26:59;8.98;;;5.88;;
46447;SDS011;32145;50.390;30.778;2023-05-27T10:29:43;8.70;;;6.03;;
46447;SDS011;32145;50.390;30.778;2023-05-27T10:32:27;8.65;;;5.93;;
46447;SDS011;32145;50.390;30.778;2023-05-27T10:35:25;6.95;;;5.55;;
46447;SDS011;32145;50.390;30.778;2023-05-27T10:38:13;16.35;;;5.78;;
46447;SDS011;32145;50.390;30.778;2023-05-27T10:41:00;7.43;;;5.93;;
46447;SDS011;32145;50.390;30.778;2023-05-27T10:43:54;6.72;;;5.38;;
46447;SDS011;32145;50.390;30.778;2023-05-27T10:46:39;7.00;;;4.40;;
46447;SDS011;32145;50.390;30.778;2023-05-27T10:49:37;5.05;;;3.65;;
46447;SDS011;32145;50.390;30.778;2023-05-27T10:52:31;5.70;;;3.92;;
46447;SDS011;32145;50.390;30.778;2023-05-27T10:55:26;5.07;;;3.92;;
46447;SDS011;32145;50.390;30.778;2023-05-27T10:58:24;5.90;;;3.90;;
46447;SDS011;32145;50.390;30.778;2023-05-27T11:01:20;5.68;;;3.88;;
46447;SDS011;32145;50.390;30.778;2023-05-27T11:04:22;6.20;;;4.07;;
46447;SDS011;32145;50.390;30.778;2023-05-27T11:07:06;5.32;;;4.28;;
46447;SDS011;32145;50.390;30.778;2023-05-27T11:10:00;6.28;;;3.92;;
46447;SDS011;32145;50.390;30.778;2023-05-27T11:12:44;6.18;;;4.00;;
46447;SDS011;32145;50.390;30.778;2023-05-27T11:15:39;6.30;;;3.97;;
46447;SDS011;32145;50.390;30.778;2023-05-27T11:18:23;5.00;;;3.80;;
46447;SDS011;32145;50.390;30.778;2023-05-27T11:21:14;4.97;;;4.28;;
46447;SDS011;32145;50.390;30.778;2023-05-27T11:23:59;6.40;;;4.18;;
46447;SDS011;32145;50.390;30.778;2023-05-27T11:26:55;5.80;;;4.57;;
46447;SDS011;32145;50.390;30.778;2023-05-27T11:29:48;8.30;;;4.78;;
46447;SDS011;32145;50.390;30.778;2023-05-27T11:32:35;5.57;;;4.00;;
46447;SDS011;32145;50.390;30.778;2023-05-27T11:35:20;5.85;;;4.20;;
46447;SDS011;32145;50.390;30.778;2023-05-27T11:38:17;11.52;;;5.03;;
46447;SDS011;32145;50.390;30.778;2023-05-27T11:41:06;6.35;;;4.57;;
46447;SDS011;32145;50.390;30.778;2023-05-27T11:43:51;7.40;;;5.03;;
46447;SDS011;32145;50.390;30.778;2023-05-27T11:46:38;6.75;;;4.45;;
46447;SDS011;32145;50.390;30.778;2023-05-27T11:49:35;6.05;;;4.50;;
46447;SDS011;32145;50.390;30.778;2023-05-27T11:52:20;6.65;;;4.82;;
46447;SDS011;32145;50.390;30.778;2023-05-27T11:55:13;17.08;;;4.90;;
46447;SDS011;32145;50.390;30.778;2023-05-27T11:58:07;6.82;;;4.50;;
46447;SDS011;32145;50.390;30.778;2023-05-27T12:00:58;8.77;;;5.03;;
46447;SDS011;32145;50.390;30.778;2023-05-27T12:03:52;7.35;;;5.05;;
46447;SDS011;32145;50.390;30.778;2023-05-27T12:06:50;8.82;;;4.60;;
46447;SDS011;32145;50.390;30.778;2023-05-27T12:09:34;7.57;;;4.97;;
46447;SDS011;32145;50.390;30.778;2023-05-27T12:12:28;6.78;;;4.90;;
46447;SDS011;32145;50.390;30.778;2023-05-27T12:15:23;7.35;;;4.93;;
46447;SDS011;32145;50.390;30.778;2023-05-27T12:18:07;7.07;;;4.25;;
46447;SDS011;32145;50.390;30.778;2023-05-27T12:20:51;8.85;;;4.40;;
46447;SDS011;32145;50.390;30.778;2023-05-27T12:23:47;4.95;;;4.13;;
46447;SDS011;32145;50.390;30.778;2023-05-27T12:26:31;5.07;;;4.28;;
46447;SDS011;32145;50.390;30.778;2023-05-27T12:29:21;9.80;;;4.80;;
46447;SDS011;32145;50.390;30.778;2023-05-27T12:32:15;9.38;;;4.85;;
46447;SDS011;32145;50.390;30.778;2023-05-27T12:35:12;7.45;;;5.15;;
46447;SDS011;32145;50.390;30.778;2023-05-27T12:38:09;10.20;;;5.40;;
46447;SDS011;32145;50.390;30.778;2023-05-27T12:40:55;7.35;;;5.15;;
46447;SDS011;32145;50.390;30.778;2023-05-27T12:43:49;7.93;;;5.00;;
46447;SDS011;32145;50.390;30.778;2023-05-27T12:46:33;8.30;;;5.22;;
46447;SDS011;32145;50.390;30.778;2023-05-27T12:49:17;6.43;;;4.90;;
46447;SDS011;32145;50.390;30.778;2023-05-27T12:52:01;6.15;;;4.70;;
46447;SDS011;32145;50.390;30.778;2023-05-27T12:54:57;7.50;;;5.00;;
46447;SDS011;32145;50.390;30.778;2023-05-27T12:57:42;5.40;;;4.30;;
46447;SDS011;32145;50.390;30.778;2023-05-27T13:00:27;6.53;;;4.57;;
46447;SDS011;32145;50.390;30.778;2023-05-27T13:03:17;8.13;;;4.55;;
46447;SDS011;32145;50.390;30.778;2023-05-27T13:06:01;7.30;;;4.63;;
46447;SDS011;32145;50.390;30.778;2023-05-27T13:08:57;8.32;;;4.50;;
46447;SDS011;32145;50.390;30.778;2023-05-27T13:11:41;7.70;;;4.30;;
46447;SDS011;32145;50.390;30.778;2023-05-27T13:14:33;6.50;;;4.20;;
46447;SDS011;32145;50.390;30.778;2023-05-27T13:17:27;7.35;;;4.80;;
46447;SDS011;32145;50.390;30.778;2023-05-27T13:20:24;8.02;;;4.75;;
46447;SDS011;32145;50.390;30.778;2023-05-27T13:23:20;8.30;;;4.90;;
46447;SDS011;32145;50.390;30.778;2023-05-27T13:26:04;6.25;;;4.80;;
46447;SDS011;32145;50.390;30.778;2023-05-27T13:28:48;7.03;;;5.07;;
46447;SDS011;32145;50.390;30.778;2023-05-27T13:31:34;5.50;;;4.40;;
46447;SDS011;32145;50.390;30.778;2023-05-27T13:34:18;6.40;;;5.07;;
46447;SDS011;32145;50.390;30.778;2023-05-27T13:37:15;7.95;;;5.32;;
46447;SDS011;32145;50.390;30.778;2023-05-27T13:40:00;7.13;;;4.40;;
46447;SDS011;32145;50.390;30.778;2023-05-27T13:42:54;6.60;;;4.82;;
46447;SDS011;32145;50.390;30.778;2023-05-27T13:45:38;8.38;;;4.80;;
46447;SDS011;32145;50.390;30.778;2023-05-27T13:48:35;6.72;;;4.55;;
46447;SDS011;32145;50.390;30.778;2023-05-27T13:51:19;6.47;;;4.47;;
46447;SDS011;32145;50.390;30.778;2023-05-27T13:54:14;6.72;;;4.60;;
46447;SDS011;32145;50.390;30.778;2023-05-27T13:56:58;8.80;;;4.50;;
46447;SDS011;32145;50.390;30.778;2023-05-27T13:59:41;6.18;;;4.85;;
46447;SDS011;32145;50.390;30.778;2023-05-27T14:02:25;8.18;;;4.93;;
46447;SDS011;32145;50.390;30.778;2023-05-27T14:05:11;6.95;;;4.82;;
46447;SDS011;32145;50.390;30.778;2023-05-27T14:08:07;6.53;;;4.60;;
46447;SDS011;32145;50.390;30.778;2023-05-27T14:10:50;8.13;;;5.20;;
46447;SDS011;32145;50.390;30.778;2023-05-27T14:13:34;13.00;;;5.32;;
46447;SDS011;32145;50.390;30.778;2023-05-27T14:16:18;6.22;;;4.75;;
46447;SDS011;32145;50.390;30.778;2023-05-27T14:19:13;8.00;;;4.90;;
46447;SDS011;32145;50.390;30.778;2023-05-27T14:21:58;7.68;;;5.10;;
46447;SDS011;32145;50.390;30.778;2023-05-27T14:24:42;6.78;;;4.78;;
46447;SDS011;32145;50.390;30.778;2023-05-27T14:27:32;8.18;;;5.07;;
46447;SDS011;32145;50.390;30.778;2023-05-27T14:30:26;6.90;;;4.97;;
46447;SDS011;32145;50.390;30.778;2023-05-27T14:33:20;6.63;;;4.80;;
46447;SDS011;32145;50.390;30.778;2023-05-27T14:36:15;7.03;;;5.18;;
46447;SDS011;32145;50.390;30.778;2023-05-27T14:39:00;6.05;;;4.82;;
46447;SDS011;32145;50.390;30.778;2023-05-27T14:41:50;6.88;;;5.00;;
46447;SDS011;32145;50.390;30.778;2023-05-27T14:44:44;9.00;;;4.90;;
46447;SDS011;32145;50.390;30.778;2023-05-27T14:47:28;8.32;;;4.43;;
46447;SDS011;32145;50.390;30.778;2023-05-27T14:50:25;7.38;;;5.28;;
46447;SDS011;32145;50.390;30.778;2023-05-27T14:53:09;7.57;;;4.72;;
46447;SDS011;32145;50.390;30.778;2023-05-27T14:56:05;5.55;;;4.90;;
46447;SDS011;32145;50.390;30.778;2023-05-27T14:58:59;7.00;;;4.68;;
46447;SDS011;32145;50.390;30.778;2023-05-27T15:01:43;8.00;;;5.30;;
46447;SDS011;32145;50.390;30.778;2023-05-27T15:04:27;8.98;;;5.25;;
46447;SDS011;32145;50.390;30.778;2023-05-27T15:07:24;7.32;;;4.68;;
46447;SDS011;32145;50.390;30.778;2023-05-27T15:10:14;8.80;;;4.82;;
46447;SDS011;32145;50.390;30.778;2023-05-27T15:12:59;6.28;;;4.30;;
46447;SDS011;32145;50.390;30.778;2023-05-27T15:15:56;11.70;;;4.90;;
46447;SDS011;32145;50.390;30.778;2023-05-27T15:18:40;17.90;;;6.45;;
46447;SDS011;32145;50.390;30.778;2023-05-27T15:21:34;10.63;;;5.60;;
46447;SDS011;32145;50.390;30.778;2023-05-27T15:24:18;11.63;;;5.63;;
46447;SDS011;32145;50.390;30.778;2023-05-27T15:27:14;8.75;;;5.80;;
46447;SDS011;32145;50.390;30.778;2023-05-27T15:30:00;14.35;;;6.18;;
46447;SDS011;32145;50.390;30.778;2023-05-27T15:32:45;10.60;;;6.30;;
46447;SDS011;32145;50.390;30.778;2023-05-27T15:35:42;11.65;;;6.32;;
46447;SDS011;32145;50.390;30.778;2023-05-27T15:38:26;11.00;;;6.15;;
46447;SDS011;32145;50.390;30.778;2023-05-27T15:41:20;7.63;;;5.20;;
46447;SDS011;32145;50.390;30.778;2023-05-27T15:44:04;7.15;;;5.35;;
46447;SDS011;32145;50.390;30.778;2023-05-27T15:47:02;8.30;;;5.18;;
46447;SDS011;32145;50.390;30.778;2023-05-27T15:49:46;6.82;;;5.70;;
46447;SDS011;32145;50.390;30.778;2023-05-27T15:52:30;7.22;;;4.90;;
46447;SDS011;32145;50.390;30.778;2023-05-27T15:55:26;6.10;;;4.78;;
46447;SDS011;32145;50.390;30.778;2023-05-27T15:58:23;6.38;;;4.70;;
46447;SDS011;32145;50.390;30.778;2023-05-27T16:01:06;8.98;;;4.90;;
46447;SDS011;32145;50.390;30.778;2023-05-27T16:04:02;7.32;;;4.65;;
46447;SDS011;32145;50.390;30.778;2023-05-27T16:06:56;6.82;;;4.45;;
46447;SDS011;32145;50.390;30.778;2023-05-27T16:09:40;8.13;;;5.30;;
46447;SDS011;32145;50.390;30.778;2023-05-27T16:12:34;6.20;;;4.70;;
46447;SDS011;32145;50.390;30.778;2023-05-27T16:15:19;6.28;;;4.53;;
46447;SDS011;32145;50.390;30.778;2023-05-27T16:18:09;7.63;;;4.50;;
46447;SDS011;32145;50.390;30.778;2023-05-27T16:20:54;5.93;;;4.47;;
46447;SDS011;32145;50.390;30.778;2023-05-27T16:23:51;5.82;;;4.45;;
46447;SDS011;32145;50.390;30.778;2023-05-27T16:26:35;6.20;;;4.47;;
46447;SDS011;32145;50.390;30.778;2023-05-27T16:29:29;8.20;;;4.75;;
46447;SDS011;32145;50.390;30.778;2023-05-27T16:32:13;6.00;;;4.57;;
46447;SDS011;32145;50.390;30.778;2023-05-27T16:35:08;5.90;;;4.38;;
46447;SDS011;32145;50.390;30.778;2023-05-27T16:37:54;10.70;;;4.10;;
46447;SDS011;32145;50.390;30.778;2023-05-27T16:40:38;7.85;;;4.22;;
46447;SDS011;32145;50.390;30.778;2023-05-27T16:43:21;6.03;;;3.97;;
46447;SDS011;32145;50.390;30.778;2023-05-27T16:46:18;8.27;;;4.13;;
46447;SDS011;32145;50.390;30.778;2023-05-27T16:49:14;6.03;;;4.20;;
46447;SDS011;32145;50.390;30.778;2023-05-27T16:51:58;9.07;;;4.07;;
46447;SDS011;32145;50.390;30.778;2023-05-27T16:54:44;6.65;;;3.83;;
46447;SDS011;32145;50.390;30.778;2023-05-27T16:57:28;7.10;;;3.70;;
46447;SDS011;32145;50.390;30.778;2023-05-27T17:00:22;5.95;;;3.63;;
46447;SDS011;32145;50.390;30.778;2023-05-27T17:03:16;7.65;;;3.92;;